KEAN/EAN METAR and TAF weather

Enter ICAO airport designator
Station Type Date Time Source
KEAN METAR 2019/08/24 20:15 UTC NOAA

KEAN 242015Z AUTO 00000KT 10SM CLR 27/09 A2997 RMK AO2 T02740090


Station Type Date Time Source
KEAN Decoded METAR 2019/08/24 20:15 UTC NOAA

Station name not available
Aug 24, 2019 - 04:15 PM EDT / 2019.08.24 2015 UTC
Wind: Calm:0
Visibility: 10 mile(s):0
Sky conditions: clear
Temperature: 81.3 F (27.4 C)
Dew Point: 48.2 F (9.0 C)
Relative Humidity: 31%
Pressure (altimeter): 29.97 in. Hg (1014 hPa)
ob: KEAN 242015Z AUTO 00000KT 10SM CLR 27/09 A2997 RMK AO2 T02740090
cycle: 20

Station Type Date Time Source
KEAN TAF UTC NOAA

Error!

Example: see airport list